PWSweather.com
Personal Weather Stations
Station Observations
PICKERING
North Yorkshire, PickeringGB

North YorkshirePickeringGB

Lat: 54.2494, Lon: -0.7725

Elevation: 192

Station Type: Oregon Scientific WMR100

http://www.yorkshirewalker.co.uk/weather/

High Low Average
Temperature 50.0°F10.0°C 30.6°F-0.8°C 42.4°F5.8°C
Dew Point 44.6°F7.0°C 23.0°F-5.0°C 37.5°F3.1°C
Winds 3.9 mph 6.3 kmh Calm Calm 1.0 mph S1.6 kmh S
Wind Gusts 8.5 mph13.7 kmh -- 3.0 mph4.8 kmh
Humidity 87% 72% 82%
Pressure 29.65 in1004.1 mb 29.36 in994.2 mb -
Precipitation 0.00 in0.0 mm - -
Hour Temp Dew Point Humidity Winds Wind Gusts Pressure Precip Precip Rate Daily Precip Total
12:00 AM 44.1°F6.7°C 39.2°F4.0°C 81% 1.4 mph E2.3 kmh E 2.7 mph4.3 kmh 29.45 in997.3 mb 0.00 in0.0 mm 0.00 in0.0 mm 0.00 in0.0 mm
12:05 AM 43.9°F6.6°C 39.2°F4.0°C 81% 1.9 mph E3.1 kmh E 4.0 mph6.4 kmh 29.45 in997.3 mb 0.00 in0.0 mm 0.00 in0.0 mm 0.00 in0.0 mm
12:10 AM 43.9°F6.6°C 39.2°F4.0°C 81% 2.2 mph ESE3.5 kmh ESE 4.0 mph6.4 kmh 29.45 in997.3 mb 0.00 in0.0 mm 0.00 in0.0 mm 0.00 in0.0 mm
12:15 AM 43.9°F6.6°C 39.2°F4.0°C 81% 0.9 mph SE1.4 kmh SE 2.9 mph4.7 kmh 29.45 in997.3 mb 0.00 in0.0 mm 0.00 in0.0 mm 0.00 in0.0 mm
12:20 AM 43.7°F6.5°C 39.2°F4.0°C 82% 0.8 mph E1.3 kmh E 3.1 mph5.0 kmh 29.45 in997.3 mb 0.00 in0.0 mm 0.00 in0.0 mm 0.00 in0.0 mm
12:25 AM 43.7°F6.5°C 39.2°F4.0°C 82% 0.8 mph E1.3 kmh E 3.1 mph5.0 kmh 29.45 in997.3 mb 0.00 in0.0 mm 0.00 in0.0 mm 0.00 in0.0 mm
12:30 AM 43.5°F6.4°C 39.2°F4.0°C 82% 0.5 mph ESE0.8 kmh ESE 2.0 mph3.2 kmh 29.45 in997.3 mb 0.00 in0.0 mm 0.00 in0.0 mm 0.00 in0.0 mm
12:35 AM 43.5°F6.4°C 39.2°F4.0°C 82% 0.6 mph SE1.0 kmh SE 2.0 mph3.2 kmh 29.45 in997.3 mb 0.00 in0.0 mm 0.00 in0.0 mm 0.00 in0.0 mm
12:40 AM 43.3°F6.3°C 39.2°F4.0°C 82% 0.4 mph ESE0.6 kmh ESE 1.1 mph1.8 kmh 29.45 in997.3 mb 0.00 in0.0 mm 0.00 in0.0 mm 0.00 in0.0 mm
12:45 AM 43.3°F6.3°C 39.2°F4.0°C 82% 0.2 mph ESE0.3 kmh ESE 1.1 mph1.8 kmh 29.45 in997.3 mb 0.00 in0.0 mm 0.00 in0.0 mm 0.00 in0.0 mm
12:50 AM 43.5°F6.4°C 39.2°F4.0°C 82% 1.2 mph E1.9 kmh E 2.7 mph4.3 kmh 29.45 in997.3 mb 0.00 in0.0 mm 0.00 in0.0 mm 0.00 in0.0 mm
12:55 AM 43.5°F6.4°C 39.2°F4.0°C 82% 1.5 mph E2.4 kmh E 2.7 mph4.3 kmh 29.45 in997.3 mb 0.00 in0.0 mm 0.00 in0.0 mm 0.00 in0.0 mm
01:00 AM 43.5°F6.4°C 39.2°F4.0°C 82% 0.5 mph ESE0.8 kmh ESE 2.2 mph3.5 kmh 29.45 in997.3 mb 0.00 in0.0 mm 0.00 in0.0 mm 0.00 in0.0 mm
01:05 AM 43.5°F6.4°C 39.2°F4.0°C 82% 0.5 mph E0.8 kmh E 2.2 mph3.5 kmh 29.41 in995.9 mb 0.00 in0.0 mm 0.00 in0.0 mm 0.00 in0.0 mm
01:10 AM 43.5°F6.4°C 39.2°F4.0°C 82% 1.0 mph E1.6 kmh E 1.6 mph2.6 kmh 29.41 in995.9 mb 0.00 in0.0 mm 0.00 in0.0 mm 0.00 in0.0 mm
01:15 AM 43.3°F6.3°C 39.2°F4.0°C 82% 1.3 mph E2.1 kmh E 1.6 mph2.6 kmh 29.41 in995.9 mb 0.00 in0.0 mm 0.00 in0.0 mm 0.00 in0.0 mm
01:20 AM 43.2°F6.2°C 39.2°F4.0°C 82% 0.9 mph E1.4 kmh E 1.3 mph2.1 kmh 29.41 in995.9 mb 0.00 in0.0 mm 0.00 in0.0 mm 0.00 in0.0 mm
01:25 AM 43.2°F6.2°C 39.2°F4.0°C 83% 0.4 mph E0.6 kmh E 1.3 mph2.1 kmh 29.41 in995.9 mb 0.00 in0.0 mm 0.00 in0.0 mm 0.00 in0.0 mm
01:30 AM 43.2°F6.2°C 39.2°F4.0°C 83% 0.4 mph E0.6 kmh E 2.0 mph3.2 kmh 29.41 in995.9 mb 0.00 in0.0 mm 0.00 in0.0 mm 0.00 in0.0 mm
01:35 AM 43.3°F6.3°C 39.2°F4.0°C 83% 1.0 mph ESE1.6 kmh ESE 2.9 mph4.7 kmh 29.41 in995.9 mb 0.00 in0.0 mm 0.00 in0.0 mm 0.00 in0.0 mm
01:40 AM 43.5°F6.4°C 39.2°F4.0°C 83% 1.1 mph SE1.8 kmh SE 2.9 mph4.7 kmh 29.41 in995.9 mb 0.00 in0.0 mm 0.00 in0.0 mm 0.00 in0.0 mm
01:45 AM 43.5°F6.4°C 39.2°F4.0°C 83% 0.7 mph SSE1.1 kmh SSE 2.9 mph4.7 kmh 29.41 in995.9 mb 0.00 in0.0 mm 0.00 in0.0 mm 0.00 in0.0 mm
01:50 AM 43.9°F6.6°C 39.2°F4.0°C 83% 1.0 mph SE1.6 kmh SE 2.9 mph4.7 kmh 29.41 in995.9 mb 0.00 in0.0 mm 0.00 in0.0 mm 0.00 in0.0 mm
01:55 AM 44.1°F6.7°C 39.2°F4.0°C 83% 1.4 mph ESE2.3 kmh ESE 2.5 mph4.0 kmh 29.41 in995.9 mb 0.00 in0.0 mm 0.00 in0.0 mm 0.00 in0.0 mm
02:00 AM 44.1°F6.7°C 39.2°F4.0°C 83% 1.5 mph E2.4 kmh E 2.5 mph4.0 kmh 29.41 in995.9 mb 0.00 in0.0 mm 0.00 in0.0 mm 0.00 in0.0 mm
02:05 AM 44.2°F6.8°C 39.2°F4.0°C 83% 1.6 mph E2.6 kmh E 2.2 mph3.5 kmh 29.41 in995.9 mb 0.00 in0.0 mm 0.00 in0.0 mm 0.00 in0.0 mm
02:10 AM 44.2°F6.8°C 39.2°F4.0°C 83% 1.6 mph E2.6 kmh E 2.2 mph3.5 kmh 29.41 in995.9 mb 0.00 in0.0 mm 0.00 in0.0 mm 0.00 in0.0 mm
02:15 AM 44.2°F6.8°C 39.2°F4.0°C 83% 1.6 mph E2.6 kmh E 2.5 mph4.0 kmh 29.41 in995.9 mb 0.00 in0.0 mm 0.00 in0.0 mm 0.00 in0.0 mm
02:20 AM 44.4°F6.9°C 39.2°F4.0°C 83% 1.7 mph ESE2.7 kmh ESE 2.5 mph4.0 kmh 29.41 in995.9 mb 0.00 in0.0 mm 0.00 in0.0 mm 0.00 in0.0 mm
02:25 AM 44.6°F7.0°C 39.2°F4.0°C 83% 1.9 mph ESE3.1 kmh ESE 2.9 mph4.7 kmh 29.41 in995.9 mb 0.00 in0.0 mm 0.00 in0.0 mm 0.00 in0.0 mm
02:30 AM 44.6°F7.0°C 39.2°F4.0°C 83% 1.8 mph ESE2.9 kmh ESE 3.4 mph5.5 kmh 29.41 in995.9 mb 0.00 in0.0 mm 0.00 in0.0 mm 0.00 in0.0 mm
02:35 AM 44.6°F7.0°C 39.2°F4.0°C 83% 1.5 mph ESE2.4 kmh ESE 3.4 mph5.5 kmh 29.41 in995.9 mb 0.00 in0.0 mm 0.00 in0.0 mm 0.00 in0.0 mm
02:40 AM 44.6°F7.0°C 39.2°F4.0°C 83% 1.2 mph SE1.9 kmh SE 3.4 mph5.5 kmh 29.41 in995.9 mb 0.00 in0.0 mm 0.00 in0.0 mm 0.00 in0.0 mm
02:45 AM 44.6°F7.0°C 39.2°F4.0°C 83% 0.9 mph SE1.4 kmh SE 2.2 mph3.5 kmh 29.41 in995.9 mb 0.00 in0.0 mm 0.00 in0.0 mm 0.00 in0.0 mm
02:50 AM 44.8°F7.1°C 39.2°F4.0°C 83% 1.0 mph ESE1.6 kmh ESE 2.0 mph3.2 kmh 29.39 in995.3 mb 0.00 in0.0 mm 0.00 in0.0 mm 0.00 in0.0 mm
02:55 AM 44.6°F7.0°C 39.2°F4.0°C 83% 0.5 mph E0.8 kmh E 1.6 mph2.6 kmh 29.39 in995.3 mb 0.00 in0.0 mm 0.00 in0.0 mm 0.00 in0.0 mm
03:00 AM 44.6°F7.0°C 41.0°F5.0°C 84% 1.1 mph E1.8 kmh E 3.4 mph5.5 kmh 29.39 in995.3 mb 0.00 in0.0 mm 0.00 in0.0 mm 0.00 in0.0 mm
03:05 AM 44.8°F7.1°C 41.0°F5.0°C 84% 1.7 mph E2.7 kmh E 3.6 mph5.8 kmh 29.39 in995.3 mb 0.00 in0.0 mm 0.00 in0.0 mm 0.00 in0.0 mm
03:10 AM 44.8°F7.1°C 41.0°F5.0°C 84% 1.7 mph ESE2.7 kmh ESE 3.6 mph5.8 kmh 29.39 in995.3 mb 0.00 in0.0 mm 0.00 in0.0 mm 0.00 in0.0 mm
03:15 AM 44.8°F7.1°C 41.0°F5.0°C 84% 1.7 mph SE2.7 kmh SE 4.9 mph7.9 kmh 29.39 in995.3 mb 0.00 in0.0 mm 0.00 in0.0 mm 0.00 in0.0 mm
03:20 AM 44.8°F7.1°C 41.0°F5.0°C 84% 1.7 mph SE2.7 kmh SE 4.9 mph7.9 kmh 29.39 in995.3 mb 0.00 in0.0 mm 0.00 in0.0 mm 0.00 in0.0 mm
03:25 AM 45.0°F7.2°C 41.0°F5.0°C 84% 0.9 mph SE1.4 kmh SE 1.3 mph2.1 kmh 29.39 in995.3 mb 0.00 in0.0 mm 0.00 in0.0 mm 0.00 in0.0 mm
03:30 AM 45.0°F7.2°C 41.0°F5.0°C 85% 0.5 mph ESE0.8 kmh ESE 1.3 mph2.1 kmh 29.39 in995.3 mb 0.00 in0.0 mm 0.00 in0.0 mm 0.00 in0.0 mm
03:35 AM 45.1°F7.3°C 41.0°F5.0°C 85% 0.5 mph SE0.8 kmh SE 2.5 mph4.0 kmh 29.39 in995.3 mb 0.00 in0.0 mm 0.00 in0.0 mm 0.00 in0.0 mm
03:40 AM 45.1°F7.3°C 41.0°F5.0°C 85% 0.6 mph SSE1.0 kmh SSE 2.5 mph4.0 kmh 29.39 in995.3 mb 0.00 in0.0 mm 0.00 in0.0 mm 0.00 in0.0 mm
03:45 AM 45.1°F7.3°C 41.0°F5.0°C 85% 0.3 mph SE0.5 kmh SE 1.1 mph1.8 kmh 29.39 in995.3 mb 0.00 in0.0 mm 0.00 in0.0 mm 0.00 in0.0 mm
03:50 AM 45.3°F7.4°C 41.0°F5.0°C 85% 0.5 mph SE0.8 kmh SE 0.9 mph1.4 kmh 29.39 in995.3 mb 0.00 in0.0 mm 0.00 in0.0 mm 0.00 in0.0 mm
03:55 AM 45.3°F7.4°C 41.0°F5.0°C 85% 0.9 mph SE1.4 kmh SE 2.0 mph3.2 kmh 29.39 in995.3 mb 0.00 in0.0 mm 0.00 in0.0 mm 0.00 in0.0 mm
04:00 AM 45.3°F7.4°C 41.0°F5.0°C 85% 0.7 mph SE1.1 kmh SE 2.0 mph3.2 kmh 29.39 in995.3 mb 0.00 in0.0 mm 0.00 in0.0 mm 0.00 in0.0 mm
04:05 AM 45.5°F7.5°C 42.8°F6.0°C 85% 0.9 mph SE1.4 kmh SE 2.9 mph4.7 kmh 29.36 in994.2 mb 0.00 in0.0 mm 0.00 in0.0 mm 0.00 in0.0 mm
04:10 AM 45.5°F7.5°C 42.8°F6.0°C 85% 1.0 mph SE1.6 kmh SE 2.9 mph4.7 kmh 29.36 in994.2 mb 0.00 in0.0 mm 0.00 in0.0 mm 0.00 in0.0 mm
04:15 AM 45.5°F7.5°C 42.8°F6.0°C 85% 1.0 mph ESE1.6 kmh ESE 2.5 mph4.0 kmh 29.36 in994.2 mb 0.00 in0.0 mm 0.00 in0.0 mm 0.00 in0.0 mm
04:20 AM 45.5°F7.5°C 42.8°F6.0°C 85% 0.9 mph ESE1.4 kmh ESE 2.5 mph4.0 kmh 29.36 in994.2 mb 0.00 in0.0 mm 0.00 in0.0 mm 0.00 in0.0 mm
04:25 AM 45.5°F7.5°C 42.8°F6.0°C 85% 1.1 mph ESE1.8 kmh ESE 3.1 mph5.0 kmh 29.36 in994.2 mb 0.00 in0.0 mm 0.00 in0.0 mm 0.00 in0.0 mm
04:30 AM 45.7°F7.6°C 42.8°F6.0°C 85% 1.9 mph E3.1 kmh E 3.4 mph5.5 kmh 29.36 in994.2 mb 0.00 in0.0 mm 0.00 in0.0 mm 0.00 in0.0 mm
04:35 AM 45.7°F7.6°C 42.8°F6.0°C 85% 1.9 mph E3.1 kmh E 3.4 mph5.5 kmh 29.36 in994.2 mb 0.00 in0.0 mm 0.00 in0.0 mm 0.00 in0.0 mm
04:40 AM 45.9°F7.7°C 42.8°F6.0°C 86% 1.4 mph ESE2.3 kmh ESE 3.1 mph5.0 kmh 29.36 in994.2 mb 0.00 in0.0 mm 0.00 in0.0 mm 0.00 in0.0 mm
04:45 AM 45.9°F7.7°C 42.8°F6.0°C 86% 1.1 mph SE1.8 kmh SE 3.1 mph5.0 kmh 29.36 in994.2 mb 0.00 in0.0 mm 0.00 in0.0 mm 0.00 in0.0 mm
04:50 AM 45.9°F7.7°C 42.8°F6.0°C 86% 0.9 mph SSE1.4 kmh SSE 2.5 mph4.0 kmh 29.36 in994.2 mb 0.00 in0.0 mm 0.00 in0.0 mm 0.00 in0.0 mm
04:55 AM 45.9°F7.7°C 42.8°F6.0°C 86% 0.8 mph SE1.3 kmh SE 2.5 mph4.0 kmh 29.36 in994.2 mb 0.00 in0.0 mm 0.00 in0.0 mm 0.00 in0.0 mm
05:00 AM 46.0°F7.8°C 42.8°F6.0°C 86% 0.4 mph SSE0.6 kmh SSE 1.3 mph2.1 kmh 29.36 in994.2 mb 0.00 in0.0 mm 0.00 in0.0 mm 0.00 in0.0 mm
05:05 AM 45.9°F7.7°C 42.8°F6.0°C 86% 0.4 mph S0.6 kmh S 1.3 mph2.1 kmh 29.36 in994.2 mb 0.00 in0.0 mm 0.00 in0.0 mm 0.00 in0.0 mm
05:10 AM 46.0°F7.8°C 42.8°F6.0°C 86% 0.3 mph SE0.5 kmh SE 0.9 mph1.4 kmh 29.36 in994.2 mb 0.00 in0.0 mm 0.00 in0.0 mm 0.00 in0.0 mm
05:15 AM 46.0°F7.8°C 42.8°F6.0°C 86% 0.4 mph E0.6 kmh E 2.5 mph4.0 kmh 29.36 in994.2 mb 0.00 in0.0 mm 0.00 in0.0 mm 0.00 in0.0 mm
05:20 AM 46.0°F7.8°C 42.8°F6.0°C 86% 1.1 mph ESE1.8 kmh ESE 2.5 mph4.0 kmh 29.36 in994.2 mb 0.00 in0.0 mm 0.00 in0.0 mm 0.00 in0.0 mm
05:25 AM 46.0°F7.8°C 42.8°F6.0°C 86% 1.1 mph ESE1.8 kmh ESE 2.5 mph4.0 kmh 29.36 in994.2 mb 0.00 in0.0 mm 0.00 in0.0 mm 0.00 in0.0 mm
05:30 AM 46.0°F7.8°C 42.8°F6.0°C 86% 0.6 mph SE1.0 kmh SE 1.6 mph2.6 kmh 29.36 in994.2 mb 0.00 in0.0 mm 0.00 in0.0 mm 0.00 in0.0 mm
05:35 AM 46.0°F7.8°C 42.8°F6.0°C 86% 0.6 mph S1.0 kmh S 1.6 mph2.6 kmh 29.36 in994.2 mb 0.00 in0.0 mm 0.00 in0.0 mm 0.00 in0.0 mm
05:40 AM 46.0°F7.8°C 42.8°F6.0°C 86% 0.7 mph S1.1 kmh S 1.6 mph2.6 kmh 29.36 in994.2 mb 0.00 in0.0 mm 0.00 in0.0 mm 0.00 in0.0 mm
05:45 AM 46.0°F7.8°C 42.8°F6.0°C 86% 0.6 mph S1.0 kmh S 1.6 mph2.6 kmh 29.36 in994.2 mb 0.00 in0.0 mm 0.00 in0.0 mm 0.00 in0.0 mm
05:50 AM 46.2°F7.9°C 42.8°F6.0°C 87% 0.6 mph S1.0 kmh S 1.6 mph2.6 kmh 29.36 in994.2 mb 0.00 in0.0 mm 0.00 in0.0 mm 0.00 in0.0 mm
05:55 AM 46.2°F7.9°C 42.8°F6.0°C 87% 0.4 mph S0.6 kmh S 1.6 mph2.6 kmh 29.36 in994.2 mb 0.00 in0.0 mm 0.00 in0.0 mm 0.00 in0.0 mm
06:00 AM 46.0°F7.8°C 42.8°F6.0°C 87% 0.2 mph SE0.3 kmh SE 1.3 mph2.1 kmh 29.36 in994.2 mb 0.00 in0.0 mm 0.00 in0.0 mm 0.00 in0.0 mm
06:05 AM 46.2°F7.9°C 42.8°F6.0°C 87% 0.6 mph SSE1.0 kmh SSE 2.0 mph3.2 kmh 29.36 in994.2 mb 0.00 in0.0 mm 0.00 in0.0 mm 0.00 in0.0 mm
06:10 AM 46.2°F7.9°C 42.8°F6.0°C 87% 0.9 mph SSE1.4 kmh SSE 2.0 mph3.2 kmh 29.36 in994.2 mb 0.00 in0.0 mm 0.00 in0.0 mm 0.00 in0.0 mm
06:15 AM 46.2°F7.9°C 42.8°F6.0°C 87% 0.5 mph SSE0.8 kmh SSE 1.6 mph2.6 kmh 29.36 in994.2 mb 0.00 in0.0 mm 0.00 in0.0 mm 0.00 in0.0 mm
06:20 AM 46.2°F7.9°C 42.8°F6.0°C 87% 0.4 mph S0.6 kmh S 1.6 mph2.6 kmh 29.36 in994.2 mb 0.00 in0.0 mm 0.00 in0.0 mm 0.00 in0.0 mm
06:25 AM 46.2°F7.9°C 42.8°F6.0°C 87% 0.9 mph S1.4 kmh S 1.6 mph2.6 kmh 29.36 in994.2 mb 0.00 in0.0 mm 0.00 in0.0 mm 0.00 in0.0 mm
06:30 AM 46.2°F7.9°C 42.8°F6.0°C 87% 0.7 mph SSE1.1 kmh SSE 1.3 mph2.1 kmh 29.36 in994.2 mb 0.00 in0.0 mm 0.00 in0.0 mm 0.00 in0.0 mm
06:35 AM 46.2°F7.9°C 42.8°F6.0°C 87% 0.5 mph SSE0.8 kmh SSE 1.3 mph2.1 kmh 29.36 in994.2 mb 0.00 in0.0 mm 0.00 in0.0 mm 0.00 in0.0 mm
06:40 AM 46.2°F7.9°C 42.8°F6.0°C 87% 0.5 mph SSE0.8 kmh SSE 1.3 mph2.1 kmh 29.36 in994.2 mb 0.00 in0.0 mm 0.00 in0.0 mm 0.00 in0.0 mm
06:45 AM 46.2°F7.9°C 42.8°F6.0°C 87% 0.5 mph SSE0.8 kmh SSE 1.3 mph2.1 kmh 29.36 in994.2 mb 0.00 in0.0 mm 0.00 in0.0 mm 0.00 in0.0 mm
06:50 AM 46.2°F7.9°C 42.8°F6.0°C 87% 0.2 mph SSE0.3 kmh SSE 1.1 mph1.8 kmh 29.36 in994.2 mb 0.00 in0.0 mm 0.00 in0.0 mm 0.00 in0.0 mm
06:55 AM 46.2°F7.9°C 42.8°F6.0°C 87% Calm Calm -- 29.36 in994.2 mb 0.00 in0.0 mm 0.00 in0.0 mm 0.00 in0.0 mm
07:00 AM 46.0°F7.8°C 42.8°F6.0°C 87% 0.2 mph SSE0.3 kmh SSE 1.3 mph2.1 kmh 29.36 in994.2 mb 0.00 in0.0 mm 0.00 in0.0 mm 0.00 in0.0 mm
07:05 AM 46.2°F7.9°C 42.8°F6.0°C 87% 0.2 mph SSE0.3 kmh SSE 1.3 mph2.1 kmh 29.36 in994.2 mb 0.00 in0.0 mm 0.00 in0.0 mm 0.00 in0.0 mm
07:10 AM 46.2°F7.9°C 42.8°F6.0°C 87% 0.1 mph SSE0.2 kmh SSE 0.9 mph1.4 kmh 29.36 in994.2 mb 0.00 in0.0 mm 0.00 in0.0 mm 0.00 in0.0 mm
07:15 AM 46.2°F7.9°C 42.8°F6.0°C 87% 0.2 mph SSE0.3 kmh SSE 0.9 mph1.4 kmh 29.36 in994.2 mb 0.00 in0.0 mm 0.00 in0.0 mm 0.00 in0.0 mm
07:20 AM 46.2°F7.9°C 42.8°F6.0°C 87% 0.6 mph S1.0 kmh S 2.9 mph4.7 kmh 29.36 in994.2 mb 0.00 in0.0 mm 0.00 in0.0 mm 0.00 in0.0 mm
07:25 AM 46.2°F7.9°C 42.8°F6.0°C 87% 0.7 mph S1.1 kmh S 2.9 mph4.7 kmh 29.36 in994.2 mb 0.00 in0.0 mm 0.00 in0.0 mm 0.00 in0.0 mm
07:30 AM 46.2°F7.9°C 42.8°F6.0°C 87% 0.6 mph S1.0 kmh S 1.6 mph2.6 kmh 29.36 in994.2 mb 0.00 in0.0 mm 0.00 in0.0 mm 0.00 in0.0 mm
07:35 AM 46.4°F8.0°C 42.8°F6.0°C 87% 1.0 mph S1.6 kmh S 3.1 mph5.0 kmh 29.36 in994.2 mb 0.00 in0.0 mm 0.00 in0.0 mm 0.00 in0.0 mm
07:40 AM 46.4°F8.0°C 42.8°F6.0°C 87% 1.0 mph SSW1.6 kmh SSW 3.1 mph5.0 kmh 29.36 in994.2 mb 0.00 in0.0 mm 0.00 in0.0 mm 0.00 in0.0 mm
07:45 AM 46.4°F8.0°C 42.8°F6.0°C 87% 0.9 mph SSW1.4 kmh SSW 2.5 mph4.0 kmh 29.36 in994.2 mb 0.00 in0.0 mm 0.00 in0.0 mm 0.00 in0.0 mm
07:50 AM 46.4°F8.0°C 42.8°F6.0°C 87% 0.7 mph SSW1.1 kmh SSW 2.5 mph4.0 kmh 29.36 in994.2 mb 0.00 in0.0 mm 0.00 in0.0 mm 0.00 in0.0 mm
07:55 AM 46.4°F8.0°C 42.8°F6.0°C 87% 0.4 mph S0.6 kmh S 1.1 mph1.8 kmh 29.36 in994.2 mb 0.00 in0.0 mm 0.00 in0.0 mm 0.00 in0.0 mm
08:00 AM 46.4°F8.0°C 42.8°F6.0°C 87% 0.5 mph WSW0.8 kmh WSW 2.2 mph3.5 kmh 29.36 in994.2 mb 0.00 in0.0 mm 0.00 in0.0 mm 0.00 in0.0 mm
08:05 AM 46.4°F8.0°C 42.8°F6.0°C 87% 0.9 mph WSW1.4 kmh WSW 2.2 mph3.5 kmh 29.36 in994.2 mb 0.00 in0.0 mm 0.00 in0.0 mm 0.00 in0.0 mm
08:10 AM 46.4°F8.0°C 42.8°F6.0°C 87% 0.8 mph WSW1.3 kmh WSW 2.2 mph3.5 kmh 29.36 in994.2 mb 0.00 in0.0 mm 0.00 in0.0 mm 0.00 in0.0 mm
08:15 AM 46.4°F8.0°C 42.8°F6.0°C 87% 0.4 mph SW0.6 kmh SW 1.1 mph1.8 kmh 29.36 in994.2 mb 0.00 in0.0 mm 0.00 in0.0 mm 0.00 in0.0 mm
08:20 AM 46.4°F8.0°C 42.8°F6.0°C 87% 0.1 mph WSW0.2 kmh WSW 1.1 mph1.8 kmh 29.36 in994.2 mb 0.00 in0.0 mm 0.00 in0.0 mm 0.00 in0.0 mm
08:25 AM 46.4°F8.0°C 42.8°F6.0°C 87% 0.1 mph S0.2 kmh S 0.9 mph1.4 kmh 29.36 in994.2 mb 0.00 in0.0 mm 0.00 in0.0 mm 0.00 in0.0 mm
08:30 AM 46.4°F8.0°C 42.8°F6.0°C 87% 0.1 mph S0.2 kmh S 0.9 mph1.4 kmh 29.36 in994.2 mb 0.00 in0.0 mm 0.00 in0.0 mm 0.00 in0.0 mm
08:35 AM 46.4°F8.0°C 42.8°F6.0°C 87% 0.4 mph WSW0.6 kmh WSW 2.0 mph3.2 kmh 29.36 in994.2 mb 0.00 in0.0 mm 0.00 in0.0 mm 0.00 in0.0 mm
08:40 AM 46.4°F8.0°C 42.8°F6.0°C 87% 1.1 mph WSW1.8 kmh WSW 2.0 mph3.2 kmh 29.36 in994.2 mb 0.00 in0.0 mm 0.00 in0.0 mm 0.00 in0.0 mm
08:45 AM 46.4°F8.0°C 42.8°F6.0°C 87% 1.7 mph SW2.7 kmh SW 2.9 mph4.7 kmh 29.36 in994.2 mb 0.00 in0.0 mm 0.00 in0.0 mm 0.00 in0.0 mm
08:50 AM 46.4°F8.0°C 42.8°F6.0°C 87% 1.7 mph SW2.7 kmh SW 3.8 mph6.1 kmh 29.36 in994.2 mb 0.00 in0.0 mm 0.00 in0.0 mm 0.00 in0.0 mm
08:55 AM 46.4°F8.0°C 42.8°F6.0°C 87% 1.4 mph WSW2.3 kmh WSW 3.8 mph6.1 kmh 29.36 in994.2 mb 0.00 in0.0 mm 0.00 in0.0 mm 0.00 in0.0 mm
09:00 AM 46.4°F8.0°C 42.8°F6.0°C 87% 1.6 mph WSW2.6 kmh WSW 3.8 mph6.1 kmh 29.36 in994.2 mb 0.00 in0.0 mm 0.00 in0.0 mm 0.00 in0.0 mm
09:05 AM 46.4°F8.0°C 42.8°F6.0°C 87% 2.6 mph WSW4.2 kmh WSW 4.0 mph6.4 kmh 29.36 in994.2 mb 0.00 in0.0 mm 0.00 in0.0 mm 0.00 in0.0 mm
09:10 AM 46.4°F8.0°C 42.8°F6.0°C 87% 2.7 mph WSW4.3 kmh WSW 4.0 mph6.4 kmh 29.36 in994.2 mb 0.00 in0.0 mm 0.00 in0.0 mm 0.00 in0.0 mm
09:15 AM 46.4°F8.0°C 42.8°F6.0°C 87% 1.9 mph WSW3.1 kmh WSW 2.9 mph4.7 kmh 29.36 in994.2 mb 0.00 in0.0 mm 0.00 in0.0 mm 0.00 in0.0 mm
09:20 AM 46.4°F8.0°C 42.8°F6.0°C 87% 1.7 mph WSW2.7 kmh WSW 2.7 mph4.3 kmh 29.36 in994.2 mb 0.00 in0.0 mm 0.00 in0.0 mm 0.00 in0.0 mm
09:25 AM 46.4°F8.0°C 42.8°F6.0°C 87% 1.8 mph WSW2.9 kmh WSW 2.7 mph4.3 kmh 29.36 in994.2 mb 0.00 in0.0 mm 0.00 in0.0 mm 0.00 in0.0 mm
09:30 AM 46.6°F8.1°C 42.8°F6.0°C 87% 1.8 mph WSW2.9 kmh WSW 2.7 mph4.3 kmh 29.36 in994.2 mb 0.00 in0.0 mm 0.00 in0.0 mm 0.00 in0.0 mm
09:35 AM 46.6°F8.1°C 42.8°F6.0°C 86% 2.2 mph WSW3.5 kmh WSW 3.1 mph5.0 kmh 29.36 in994.2 mb 0.00 in0.0 mm 0.00 in0.0 mm 0.00 in0.0 mm
09:40 AM 46.8°F8.2°C 42.8°F6.0°C 86% 2.9 mph WSW4.7 kmh WSW 3.4 mph5.5 kmh 29.36 in994.2 mb 0.00 in0.0 mm 0.00 in0.0 mm 0.00 in0.0 mm
09:45 AM 46.6°F8.1°C 42.8°F6.0°C 86% 2.7 mph WSW4.3 kmh WSW 3.4 mph5.5 kmh 29.36 in994.2 mb 0.00 in0.0 mm 0.00 in0.0 mm 0.00 in0.0 mm
09:50 AM 46.6°F8.1°C 42.8°F6.0°C 86% 2.3 mph WSW3.7 kmh WSW 2.9 mph4.7 kmh 29.36 in994.2 mb 0.00 in0.0 mm 0.00 in0.0 mm 0.00 in0.0 mm
09:55 AM 46.6°F8.1°C 42.8°F6.0°C 86% 2.1 mph WSW3.4 kmh WSW 2.9 mph4.7 kmh 29.36 in994.2 mb 0.00 in0.0 mm 0.00 in0.0 mm 0.00 in0.0 mm
10:00 AM 46.6°F8.1°C 42.8°F6.0°C 87% 1.9 mph WSW3.1 kmh WSW 3.4 mph5.5 kmh 29.36 in994.2 mb 0.00 in0.0 mm 0.00 in0.0 mm 0.00 in0.0 mm
10:05 AM 46.6°F8.1°C 42.8°F6.0°C 87% 2.1 mph SW3.4 kmh SW 3.6 mph5.8 kmh 29.39 in995.3 mb 0.00 in0.0 mm 0.00 in0.0 mm 0.00 in0.0 mm
10:10 AM 46.6°F8.1°C 42.8°F6.0°C 87% 2.7 mph WSW4.3 kmh WSW 3.6 mph5.8 kmh 29.39 in995.3 mb 0.00 in0.0 mm 0.00 in0.0 mm 0.00 in0.0 mm
10:15 AM 46.4°F8.0°C 42.8°F6.0°C 86% 2.4 mph WSW3.9 kmh WSW 3.6 mph5.8 kmh 29.39 in995.3 mb 0.00 in0.0 mm 0.00 in0.0 mm 0.00 in0.0 mm
10:20 AM 46.4°F8.0°C 42.8°F6.0°C 86% 2.4 mph WSW3.9 kmh WSW 4.7 mph7.6 kmh 29.39 in995.3 mb 0.00 in0.0 mm 0.00 in0.0 mm 0.00 in0.0 mm
10:25 AM 46.4°F8.0°C 42.8°F6.0°C 86% 3.7 mph WSW6.0 kmh WSW 4.7 mph7.6 kmh 29.39 in995.3 mb 0.00 in0.0 mm 0.00 in0.0 mm 0.00 in0.0 mm
10:30 AM 46.4°F8.0°C 42.8°F6.0°C 86% 3.6 mph W5.8 kmh W 4.7 mph7.6 kmh 29.39 in995.3 mb 0.00 in0.0 mm 0.00 in0.0 mm 0.00 in0.0 mm
10:35 AM 46.4°F8.0°C 42.8°F6.0°C 86% 3.1 mph W5.0 kmh W 4.7 mph7.6 kmh 29.39 in995.3 mb 0.00 in0.0 mm 0.00 in0.0 mm 0.00 in0.0 mm
10:40 AM 46.4°F8.0°C 42.8°F6.0°C 85% 2.0 mph W3.2 kmh W 3.1 mph5.0 kmh 29.39 in995.3 mb 0.00 in0.0 mm 0.00 in0.0 mm 0.00 in0.0 mm
10:45 AM 46.4°F8.0°C 42.8°F6.0°C 85% 1.3 mph WNW2.1 kmh WNW 2.0 mph3.2 kmh 29.39 in995.3 mb 0.00 in0.0 mm 0.00 in0.0 mm 0.00 in0.0 mm
10:50 AM 46.2°F7.9°C 42.8°F6.0°C 85% 1.2 mph WNW1.9 kmh WNW 2.0 mph3.2 kmh 29.39 in995.3 mb 0.00 in0.0 mm 0.00 in0.0 mm 0.00 in0.0 mm
10:55 AM 46.0°F7.8°C 42.8°F6.0°C 85% 2.4 mph NW3.9 kmh NW 5.8 mph9.3 kmh 29.39 in995.3 mb 0.00 in0.0 mm 0.00 in0.0 mm 0.00 in0.0 mm
11:00 AM 45.9°F7.7°C 42.8°F6.0°C 85% 2.8 mph NW4.5 kmh NW 5.8 mph9.3 kmh 29.39 in995.3 mb 0.00 in0.0 mm 0.00 in0.0 mm 0.00 in0.0 mm
11:05 AM 46.0°F7.8°C 42.8°F6.0°C 85% 2.0 mph NNW3.2 kmh NNW 4.3 mph6.9 kmh 29.39 in995.3 mb 0.00 in0.0 mm 0.00 in0.0 mm 0.00 in0.0 mm
11:10 AM 46.0°F7.8°C 42.8°F6.0°C 85% 1.3 mph NW2.1 kmh NW 4.3 mph6.9 kmh 29.39 in995.3 mb 0.00 in0.0 mm 0.00 in0.0 mm 0.00 in0.0 mm
11:15 AM 46.0°F7.8°C 41.0°F5.0°C 84% 1.4 mph WSW2.3 kmh WSW 2.2 mph3.5 kmh 29.39 in995.3 mb 0.00 in0.0 mm 0.00 in0.0 mm 0.00 in0.0 mm
11:20 AM 46.4°F8.0°C 42.8°F6.0°C 84% 1.1 mph WSW1.8 kmh WSW 2.2 mph3.5 kmh 29.39 in995.3 mb 0.00 in0.0 mm 0.00 in0.0 mm 0.00 in0.0 mm
11:25 AM 46.4°F8.0°C 42.8°F6.0°C 84% 0.5 mph WSW0.8 kmh WSW 1.6 mph2.6 kmh 29.39 in995.3 mb 0.00 in0.0 mm 0.00 in0.0 mm 0.00 in0.0 mm
11:30 AM 47.1°F8.4°C 42.8°F6.0°C 84% 0.8 mph WSW1.3 kmh WSW 1.6 mph2.6 kmh 29.39 in995.3 mb 0.00 in0.0 mm 0.00 in0.0 mm 0.00 in0.0 mm
11:35 AM 47.3°F8.5°C 42.8°F6.0°C 84% 1.1 mph WSW1.8 kmh WSW 1.6 mph2.6 kmh 29.39 in995.3 mb 0.00 in0.0 mm 0.00 in0.0 mm 0.00 in0.0 mm
11:40 AM 47.5°F8.6°C 42.8°F6.0°C 84% 0.3 mph WSW0.5 kmh WSW 1.6 mph2.6 kmh 29.39 in995.3 mb 0.00 in0.0 mm 0.00 in0.0 mm 0.00 in0.0 mm
11:45 AM 47.5°F8.6°C 42.8°F6.0°C 84% 1.4 mph W2.3 kmh W 3.1 mph5.0 kmh 29.39 in995.3 mb 0.00 in0.0 mm 0.00 in0.0 mm 0.00 in0.0 mm
11:50 AM 47.3°F8.5°C 42.8°F6.0°C 83% 2.2 mph W3.5 kmh W 3.1 mph5.0 kmh 29.39 in995.3 mb 0.00 in0.0 mm 0.00 in0.0 mm 0.00 in0.0 mm
11:55 AM 47.3°F8.5°C 42.8°F6.0°C 83% 1.3 mph W2.1 kmh W 3.1 mph5.0 kmh 29.39 in995.3 mb 0.00 in0.0 mm 0.00 in0.0 mm 0.00 in0.0 mm
12:00 PM 47.3°F8.5°C 42.8°F6.0°C 83% 1.3 mph WSW2.1 kmh WSW 2.0 mph3.2 kmh 29.39 in995.3 mb 0.00 in0.0 mm 0.00 in0.0 mm 0.00 in0.0 mm
12:05 PM 47.3°F8.5°C 42.8°F6.0°C 83% 2.3 mph WSW3.7 kmh WSW 3.8 mph6.1 kmh 29.39 in995.3 mb 0.00 in0.0 mm 0.00 in0.0 mm 0.00 in0.0 mm
12:10 PM 47.7°F8.7°C 42.8°F6.0°C 82% 2.9 mph WSW4.7 kmh WSW 4.0 mph6.4 kmh 29.39 in995.3 mb 0.00 in0.0 mm 0.00 in0.0 mm 0.00 in0.0 mm
12:15 PM 47.8°F8.8°C 42.8°F6.0°C 82% 3.8 mph WNW6.1 kmh WNW 6.0 mph9.7 kmh 29.39 in995.3 mb 0.00 in0.0 mm 0.00 in0.0 mm 0.00 in0.0 mm
12:20 PM 48.4°F9.1°C 42.8°F6.0°C 81% 3.9 mph NW6.3 kmh NW 6.0 mph9.7 kmh 29.41 in995.9 mb 0.00 in0.0 mm 0.00 in0.0 mm 0.00 in0.0 mm
12:25 PM 49.5°F9.7°C 44.6°F7.0°C 80% 3.5 mph NW5.6 kmh NW 5.4 mph8.7 kmh 29.41 in995.9 mb 0.00 in0.0 mm 0.00 in0.0 mm 0.00 in0.0 mm
12:30 PM 50.0°F10.0°C 44.6°F7.0°C 80% 3.7 mph NW6.0 kmh NW 5.4 mph8.7 kmh 29.41 in995.9 mb 0.00 in0.0 mm 0.00 in0.0 mm 0.00 in0.0 mm
12:35 PM 49.1°F9.5°C 44.6°F7.0°C 80% 2.4 mph NW3.9 kmh NW 4.9 mph7.9 kmh 29.41 in995.9 mb 0.00 in0.0 mm 0.00 in0.0 mm 0.00 in0.0 mm
12:40 PM 48.7°F9.3°C 42.8°F6.0°C 80% 1.6 mph NW2.6 kmh NW 3.6 mph5.8 kmh 29.41 in995.9 mb 0.00 in0.0 mm 0.00 in0.0 mm 0.00 in0.0 mm
12:45 PM 48.7°F9.3°C 42.8°F6.0°C 80% 1.0 mph WNW1.6 kmh WNW 3.6 mph5.8 kmh 29.41 in995.9 mb 0.00 in0.0 mm 0.00 in0.0 mm 0.00 in0.0 mm
12:50 PM 48.6°F9.2°C 42.8°F6.0°C 80% 1.4 mph W2.3 kmh W 4.0 mph6.4 kmh 29.41 in995.9 mb 0.00 in0.0 mm 0.00 in0.0 mm 0.00 in0.0 mm
12:55 PM 48.4°F9.1°C 42.8°F6.0°C 79% 3.1 mph W5.0 kmh W 4.9 mph7.9 kmh 29.41 in995.9 mb 0.00 in0.0 mm 0.00 in0.0 mm 0.00 in0.0 mm
01:00 PM 48.2°F9.0°C 42.8°F6.0°C 79% 3.0 mph WNW4.8 kmh WNW 4.9 mph7.9 kmh 29.41 in995.9 mb 0.00 in0.0 mm 0.00 in0.0 mm 0.00 in0.0 mm
01:05 PM 48.0°F8.9°C 42.8°F6.0°C 79% 2.8 mph WNW4.5 kmh WNW 5.8 mph9.3 kmh 29.41 in995.9 mb 0.00 in0.0 mm 0.00 in0.0 mm 0.00 in0.0 mm
01:10 PM 48.0°F8.9°C 42.8°F6.0°C 79% 3.9 mph NW6.3 kmh NW 8.5 mph13.7 kmh 29.41 in995.9 mb 0.00 in0.0 mm 0.00 in0.0 mm 0.00 in0.0 mm
01:15 PM 47.8°F8.8°C 42.8°F6.0°C 79% 3.2 mph NW5.1 kmh NW 8.5 mph13.7 kmh 29.41 in995.9 mb 0.00 in0.0 mm 0.00 in0.0 mm 0.00 in0.0 mm
01:20 PM 47.7°F8.7°C 42.8°F6.0°C 79% 2.3 mph WNW3.7 kmh WNW 3.6 mph5.8 kmh 29.41 in995.9 mb 0.00 in0.0 mm 0.00 in0.0 mm 0.00 in0.0 mm
01:25 PM 47.7°F8.7°C 42.8°F6.0°C 79% 2.2 mph WNW3.5 kmh WNW 4.3 mph6.9 kmh 29.41 in995.9 mb 0.00 in0.0 mm 0.00 in0.0 mm 0.00 in0.0 mm
01:30 PM 47.7°F8.7°C 42.8°F6.0°C 79% 2.0 mph WNW3.2 kmh WNW 4.3 mph6.9 kmh 29.41 in995.9 mb 0.00 in0.0 mm 0.00 in0.0 mm 0.00 in0.0 mm
01:35 PM 47.8°F8.8°C 42.8°F6.0°C 79% 1.6 mph WNW2.6 kmh WNW 3.1 mph5.0 kmh 29.45 in997.3 mb 0.00 in0.0 mm 0.00 in0.0 mm 0.00 in0.0 mm
01:40 PM 48.0°F8.9°C 42.8°F6.0°C 79% 1.3 mph NW2.1 kmh NW 2.7 mph4.3 kmh 29.45 in997.3 mb 0.00 in0.0 mm 0.00 in0.0 mm 0.00 in0.0 mm
01:45 PM 48.2°F9.0°C 42.8°F6.0°C 79% 1.8 mph WNW2.9 kmh WNW 3.8 mph6.1 kmh 29.45 in997.3 mb 0.00 in0.0 mm 0.00 in0.0 mm 0.00 in0.0 mm
01:50 PM 48.4°F9.1°C 42.8°F6.0°C 79% 1.5 mph WNW2.4 kmh WNW 3.8 mph6.1 kmh 29.41 in995.9 mb 0.00 in0.0 mm 0.00 in0.0 mm 0.00 in0.0 mm
01:55 PM 48.2°F9.0°C 42.8°F6.0°C 79% 1.5 mph NW2.4 kmh NW 3.8 mph6.1 kmh 29.41 in995.9 mb 0.00 in0.0 mm 0.00 in0.0 mm 0.00 in0.0 mm
02:00 PM 48.4°F9.1°C 42.8°F6.0°C 79% 1.7 mph NW2.7 kmh NW 3.8 mph6.1 kmh 29.41 in995.9 mb 0.00 in0.0 mm 0.00 in0.0 mm 0.00 in0.0 mm
02:05 PM 48.7°F9.3°C 42.8°F6.0°C 79% 1.9 mph NW3.1 kmh NW 3.8 mph6.1 kmh 29.45 in997.3 mb 0.00 in0.0 mm 0.00 in0.0 mm 0.00 in0.0 mm
02:10 PM 48.4°F9.1°C 42.8°F6.0°C 78% 2.6 mph NW4.2 kmh NW 3.8 mph6.1 kmh 29.45 in997.3 mb 0.00 in0.0 mm 0.00 in0.0 mm 0.00 in0.0 mm
02:15 PM 48.2°F9.0°C 42.8°F6.0°C 78% 2.6 mph WNW4.2 kmh WNW 3.8 mph6.1 kmh 29.45 in997.3 mb 0.00 in0.0 mm 0.00 in0.0 mm 0.00 in0.0 mm
02:20 PM 47.8°F8.8°C 42.8°F6.0°C 78% 1.8 mph WNW2.9 kmh WNW 3.1 mph5.0 kmh 29.45 in997.3 mb 0.00 in0.0 mm 0.00 in0.0 mm 0.00 in0.0 mm
02:25 PM 47.5°F8.6°C 41.0°F5.0°C 78% 2.5 mph WSW4.0 kmh WSW 7.2 mph11.6 kmh 29.45 in997.3 mb 0.00 in0.0 mm 0.00 in0.0 mm 0.00 in0.0 mm
02:30 PM 47.7°F8.7°C 41.0°F5.0°C 78% 2.9 mph W4.7 kmh W 7.2 mph11.6 kmh 29.45 in997.3 mb 0.00 in0.0 mm 0.00 in0.0 mm 0.00 in0.0 mm
02:35 PM 47.7°F8.7°C 41.0°F5.0°C 78% 2.0 mph WNW3.2 kmh WNW 4.0 mph6.4 kmh 29.45 in997.3 mb 0.00 in0.0 mm 0.00 in0.0 mm 0.00 in0.0 mm
02:40 PM 47.3°F8.5°C 41.0°F5.0°C 77% 2.7 mph WNW4.3 kmh WNW 5.4 mph8.7 kmh 29.45 in997.3 mb 0.00 in0.0 mm 0.00 in0.0 mm 0.00 in0.0 mm
02:45 PM 47.1°F8.4°C 41.0°F5.0°C 77% 3.2 mph W5.1 kmh W 7.2 mph11.6 kmh 29.45 in997.3 mb 0.00 in0.0 mm 0.00 in0.0 mm 0.00 in0.0 mm
02:50 PM 47.3°F8.5°C 41.0°F5.0°C 76% 3.0 mph W4.8 kmh W 7.2 mph11.6 kmh 29.45 in997.3 mb 0.00 in0.0 mm 0.00 in0.0 mm 0.00 in0.0 mm
02:55 PM 47.3°F8.5°C 41.0°F5.0°C 76% 2.9 mph WNW4.7 kmh WNW 5.8 mph9.3 kmh 29.45 in997.3 mb 0.00 in0.0 mm 0.00 in0.0 mm 0.00 in0.0 mm
03:00 PM 47.3°F8.5°C 41.0°F5.0°C 75% 2.7 mph W4.3 kmh W 5.8 mph9.3 kmh 29.45 in997.3 mb 0.00 in0.0 mm 0.00 in0.0 mm 0.00 in0.0 mm
03:05 PM 47.1°F8.4°C 41.0°F5.0°C 75% 3.2 mph WNW5.1 kmh WNW 6.5 mph10.5 kmh 29.45 in997.3 mb 0.00 in0.0 mm 0.00 in0.0 mm 0.00 in0.0 mm
03:10 PM 46.8°F8.2°C 39.2°F4.0°C 75% 3.0 mph WNW4.8 kmh WNW 6.5 mph10.5 kmh 29.45 in997.3 mb 0.00 in0.0 mm 0.00 in0.0 mm 0.00 in0.0 mm
03:15 PM 46.8°F8.2°C 39.2°F4.0°C 74% 2.4 mph W3.9 kmh W 4.0 mph6.4 kmh 29.45 in997.3 mb 0.00 in0.0 mm 0.00 in0.0 mm 0.00 in0.0 mm
03:20 PM 46.6°F8.1°C 39.2°F4.0°C 74% 3.6 mph W5.8 kmh W 6.0 mph9.7 kmh 29.45 in997.3 mb 0.00 in0.0 mm 0.00 in0.0 mm 0.00 in0.0 mm
03:25 PM 46.2°F7.9°C 39.2°F4.0°C 74% 3.8 mph W6.1 kmh W 6.0 mph9.7 kmh 29.45 in997.3 mb 0.00 in0.0 mm 0.00 in0.0 mm 0.00 in0.0 mm
03:30 PM 46.0°F7.8°C 37.4°F3.0°C 74% 3.5 mph W5.6 kmh W 5.8 mph9.3 kmh 29.45 in997.3 mb 0.00 in0.0 mm 0.00 in0.0 mm 0.00 in0.0 mm
03:35 PM 45.7°F7.6°C 37.4°F3.0°C 73% 3.0 mph W4.8 kmh W 5.8 mph9.3 kmh 29.45 in997.3 mb 0.00 in0.0 mm 0.00 in0.0 mm 0.00 in0.0 mm
03:40 PM 45.3°F7.4°C 37.4°F3.0°C 74% 2.0 mph W3.2 kmh W 5.8 mph9.3 kmh 29.45 in997.3 mb 0.00 in0.0 mm 0.00 in0.0 mm 0.00 in0.0 mm
03:45 PM 45.0°F7.2°C 37.4°F3.0°C 73% 1.7 mph W2.7 kmh W 3.8 mph6.1 kmh 29.45 in997.3 mb 0.00 in0.0 mm 0.00 in0.0 mm 0.00 in0.0 mm
03:50 PM 45.0°F7.2°C 37.4°F3.0°C 73% 2.5 mph W4.0 kmh W 3.8 mph6.1 kmh 29.45 in997.3 mb 0.00 in0.0 mm 0.00 in0.0 mm 0.00 in0.0 mm
03:55 PM 45.1°F7.3°C 37.4°F3.0°C 73% 3.1 mph W5.0 kmh W 6.3 mph10.1 kmh 29.45 in997.3 mb 0.00 in0.0 mm 0.00 in0.0 mm 0.00 in0.0 mm
04:00 PM 45.0°F7.2°C 37.4°F3.0°C 72% 3.5 mph W5.6 kmh W 6.3 mph10.1 kmh 29.45 in997.3 mb 0.00 in0.0 mm 0.00 in0.0 mm 0.00 in0.0 mm
04:05 PM 44.6°F7.0°C 37.4°F3.0°C 72% 3.0 mph W4.8 kmh W 5.4 mph8.7 kmh 29.47 in998.0 mb 0.00 in0.0 mm 0.00 in0.0 mm 0.00 in0.0 mm
04:10 PM 43.9°F6.6°C 35.6°F2.0°C 73% 1.8 mph W2.9 kmh W 2.9 mph4.7 kmh 29.47 in998.0 mb 0.00 in0.0 mm 0.00 in0.0 mm 0.00 in0.0 mm
04:15 PM 43.7°F6.5°C 35.6°F2.0°C 73% 1.2 mph NW1.9 kmh NW 2.5 mph4.0 kmh 29.47 in998.0 mb 0.00 in0.0 mm 0.00 in0.0 mm 0.00 in0.0 mm
04:20 PM 43.2°F6.2°C 35.6°F2.0°C 73% 0.8 mph NW1.3 kmh NW 2.5 mph4.0 kmh 29.47 in998.0 mb 0.00 in0.0 mm 0.00 in0.0 mm 0.00 in0.0 mm
04:25 PM 42.8°F6.0°C 35.6°F2.0°C 74% 0.4 mph NNW0.6 kmh NNW 2.5 mph4.0 kmh 29.47 in998.0 mb 0.00 in0.0 mm 0.00 in0.0 mm 0.00 in0.0 mm
04:30 PM 42.6°F5.9°C 35.6°F2.0°C 74% 0.3 mph N0.5 kmh N 1.3 mph2.1 kmh 29.47 in998.0 mb 0.00 in0.0 mm 0.00 in0.0 mm 0.00 in0.0 mm
04:35 PM 42.1°F5.6°C 35.6°F2.0°C 74% 0.5 mph NNW0.8 kmh NNW 1.3 mph2.1 kmh 29.47 in998.0 mb 0.00 in0.0 mm 0.00 in0.0 mm 0.00 in0.0 mm
04:40 PM 41.5°F5.3°C 35.6°F2.0°C 75% 0.3 mph NW0.5 kmh NW 1.1 mph1.8 kmh 29.47 in998.0 mb 0.00 in0.0 mm 0.00 in0.0 mm 0.00 in0.0 mm
04:45 PM 41.0°F5.0°C 33.8°F1.0°C 75% 0.3 mph NW0.5 kmh NW 1.1 mph1.8 kmh 29.47 in998.0 mb 0.00 in0.0 mm 0.00 in0.0 mm 0.00 in0.0 mm
04:50 PM 40.8°F4.9°C 33.8°F1.0°C 76% 0.7 mph NW1.1 kmh NW 1.6 mph2.6 kmh 29.47 in998.0 mb 0.00 in0.0 mm 0.00 in0.0 mm 0.00 in0.0 mm
04:55 PM 40.5°F4.7°C 33.8°F1.0°C 76% 1.2 mph NW1.9 kmh NW 2.5 mph4.0 kmh 29.47 in998.0 mb 0.00 in0.0 mm 0.00 in0.0 mm 0.00 in0.0 mm
05:00 PM 40.5°F4.7°C 33.8°F1.0°C 76% 1.0 mph NW1.6 kmh NW 2.5 mph4.0 kmh 29.47 in998.0 mb 0.00 in0.0 mm 0.00 in0.0 mm 0.00 in0.0 mm
05:05 PM 40.1°F4.5°C 33.8°F1.0°C 76% 0.6 mph NNW1.0 kmh NNW 1.6 mph2.6 kmh 29.47 in998.0 mb 0.00 in0.0 mm 0.00 in0.0 mm 0.00 in0.0 mm
05:10 PM 40.1°F4.5°C 33.8°F1.0°C 76% 1.2 mph N1.9 kmh N 2.5 mph4.0 kmh 29.47 in998.0 mb 0.00 in0.0 mm 0.00 in0.0 mm 0.00 in0.0 mm
05:15 PM 40.1°F4.5°C 33.8°F1.0°C 77% 1.4 mph N2.3 kmh N 2.5 mph4.0 kmh 29.47 in998.0 mb 0.00 in0.0 mm 0.00 in0.0 mm 0.00 in0.0 mm
05:20 PM 39.7°F4.3°C 33.8°F1.0°C 77% 1.2 mph NNW1.9 kmh NNW 2.2 mph3.5 kmh 29.50 in999.0 mb 0.00 in0.0 mm 0.00 in0.0 mm 0.00 in0.0 mm
05:25 PM 39.7°F4.3°C 33.8°F1.0°C 76% 1.1 mph N1.8 kmh N 2.2 mph3.5 kmh 29.50 in999.0 mb 0.00 in0.0 mm 0.00 in0.0 mm 0.00 in0.0 mm
05:30 PM 39.6°F4.2°C 33.8°F1.0°C 77% 0.8 mph NNW1.3 kmh NNW 2.2 mph3.5 kmh 29.50 in999.0 mb 0.00 in0.0 mm 0.00 in0.0 mm 0.00 in0.0 mm
05:35 PM 39.4°F4.1°C 33.8°F1.0°C 77% 0.4 mph SW0.6 kmh SW 1.1 mph1.8 kmh 29.50 in999.0 mb 0.00 in0.0 mm 0.00 in0.0 mm 0.00 in0.0 mm
05:40 PM 39.2°F4.0°C 33.8°F1.0°C 77% 0.4 mph SW0.6 kmh SW 1.3 mph2.1 kmh 29.50 in999.0 mb 0.00 in0.0 mm 0.00 in0.0 mm 0.00 in0.0 mm
05:45 PM 38.7°F3.7°C 32.0°F0.0°C 77% 0.3 mph NW0.5 kmh NW 1.3 mph2.1 kmh 29.50 in999.0 mb 0.00 in0.0 mm 0.00 in0.0 mm 0.00 in0.0 mm
05:50 PM 38.7°F3.7°C 32.0°F0.0°C 77% 0.6 mph NW1.0 kmh NW 1.3 mph2.1 kmh 29.53 in1000.0 mb 0.00 in0.0 mm 0.00 in0.0 mm 0.00 in0.0 mm
05:55 PM 38.8°F3.8°C 32.0°F0.0°C 77% 1.3 mph W2.1 kmh W 3.6 mph5.8 kmh 29.53 in1000.0 mb 0.00 in0.0 mm 0.00 in0.0 mm 0.00 in0.0 mm
06:00 PM 38.3°F3.5°C 32.0°F0.0°C 77% 1.2 mph WNW1.9 kmh WNW 3.6 mph5.8 kmh 29.53 in1000.0 mb 0.00 in0.0 mm 0.00 in0.0 mm 0.00 in0.0 mm
06:05 PM 37.9°F3.3°C 32.0°F0.0°C 77% 0.3 mph NNW0.5 kmh NNW 1.1 mph1.8 kmh 29.53 in1000.0 mb 0.00 in0.0 mm 0.00 in0.0 mm 0.00 in0.0 mm
06:10 PM 37.6°F3.1°C 32.0°F0.0°C 77% 0.1 mph NNW0.2 kmh NNW 1.1 mph1.8 kmh 29.53 in1000.0 mb 0.00 in0.0 mm 0.00 in0.0 mm 0.00 in0.0 mm
06:15 PM 37.4°F3.0°C 32.0°F0.0°C 77% 0.1 mph NNW0.2 kmh NNW 0.9 mph1.4 kmh 29.53 in1000.0 mb 0.00 in0.0 mm 0.00 in0.0 mm 0.00 in0.0 mm
06:20 PM 37.2°F2.9°C 32.0°F0.0°C 78% 0.3 mph NNE0.5 kmh NNE 1.1 mph1.8 kmh 29.53 in1000.0 mb 0.00 in0.0 mm 0.00 in0.0 mm 0.00 in0.0 mm
06:25 PM 37.0°F2.8°C 32.0°F0.0°C 78% 0.3 mph NE0.5 kmh NE 1.6 mph2.6 kmh 29.53 in1000.0 mb 0.00 in0.0 mm 0.00 in0.0 mm 0.00 in0.0 mm
06:30 PM 37.0°F2.8°C 32.0°F0.0°C 78% 0.6 mph NE1.0 kmh NE 2.7 mph4.3 kmh 29.53 in1000.0 mb 0.00 in0.0 mm 0.00 in0.0 mm 0.00 in0.0 mm
06:35 PM 36.7°F2.6°C 30.2°F-1.0°C 78% 0.3 mph NE0.5 kmh NE 2.7 mph4.3 kmh 29.53 in1000.0 mb 0.00 in0.0 mm 0.00 in0.0 mm 0.00 in0.0 mm
06:40 PM 36.3°F2.4°C 30.2°F-1.0°C 78% Calm Calm -- 29.53 in1000.0 mb 0.00 in0.0 mm 0.00 in0.0 mm 0.00 in0.0 mm
06:45 PM 36.1°F2.3°C 30.2°F-1.0°C 78% Calm Calm -- 29.53 in1000.0 mb 0.00 in0.0 mm 0.00 in0.0 mm 0.00 in0.0 mm
06:50 PM 36.0°F2.2°C 30.2°F-1.0°C 78% Calm Calm -- 29.56 in1001.0 mb 0.00 in0.0 mm 0.00 in0.0 mm 0.00 in0.0 mm
06:55 PM 35.6°F2.0°C 30.2°F-1.0°C 78% Calm Calm -- 29.56 in1001.0 mb 0.00 in0.0 mm 0.00 in0.0 mm 0.00 in0.0 mm
07:00 PM 35.4°F1.9°C 30.2°F-1.0°C 78% 0.1 mph NNW0.2 kmh NNW 1.1 mph1.8 kmh 29.56 in1001.0 mb 0.00 in0.0 mm 0.00 in0.0 mm 0.00 in0.0 mm
07:05 PM 35.2°F1.8°C 30.2°F-1.0°C 79% 0.1 mph NNW0.2 kmh NNW 1.1 mph1.8 kmh 29.53 in1000.0 mb 0.00 in0.0 mm 0.00 in0.0 mm 0.00 in0.0 mm
07:10 PM 35.1°F1.7°C 30.2°F-1.0°C 79% 0.3 mph WSW0.5 kmh WSW 1.3 mph2.1 kmh 29.53 in1000.0 mb 0.00 in0.0 mm 0.00 in0.0 mm 0.00 in0.0 mm
07:15 PM 35.1°F1.7°C 30.2°F-1.0°C 79% 0.3 mph SW0.5 kmh SW 1.3 mph2.1 kmh 29.53 in1000.0 mb 0.00 in0.0 mm 0.00 in0.0 mm 0.00 in0.0 mm
07:20 PM 34.9°F1.6°C 30.2°F-1.0°C 79% 0.2 mph NE0.3 kmh NE 2.5 mph4.0 kmh 29.56 in1001.0 mb 0.00 in0.0 mm 0.00 in0.0 mm 0.00 in0.0 mm
07:25 PM 34.7°F1.5°C 30.2°F-1.0°C 79% 0.3 mph NE0.5 kmh NE 2.5 mph4.0 kmh 29.56 in1001.0 mb 0.00 in0.0 mm 0.00 in0.0 mm 0.00 in0.0 mm
07:30 PM 34.5°F1.4°C 28.4°F-2.0°C 79% 0.2 mph NE0.3 kmh NE 1.1 mph1.8 kmh 29.56 in1001.0 mb 0.00 in0.0 mm 0.00 in0.0 mm 0.00 in0.0 mm
07:35 PM 34.2°F1.2°C 28.4°F-2.0°C 79% Calm Calm -- 29.56 in1001.0 mb 0.00 in0.0 mm 0.00 in0.0 mm 0.00 in0.0 mm
07:40 PM 34.2°F1.2°C 28.4°F-2.0°C 79% 0.2 mph NNW0.3 kmh NNW 0.9 mph1.4 kmh 29.56 in1001.0 mb 0.00 in0.0 mm 0.00 in0.0 mm 0.00 in0.0 mm
07:45 PM 34.0°F1.1°C 28.4°F-2.0°C 79% 0.3 mph NNW0.5 kmh NNW 0.9 mph1.4 kmh 29.56 in1001.0 mb 0.00 in0.0 mm 0.00 in0.0 mm 0.00 in0.0 mm
07:50 PM 33.8°F1.0°C 28.4°F-2.0°C 79% 0.4 mph NNW0.6 kmh NNW 1.1 mph1.8 kmh 29.56 in1001.0 mb 0.00 in0.0 mm 0.00 in0.0 mm 0.00 in0.0 mm
07:55 PM 33.8°F1.0°C 28.4°F-2.0°C 79% 0.3 mph N0.5 kmh N 1.1 mph1.8 kmh 29.56 in1001.0 mb 0.00 in0.0 mm 0.00 in0.0 mm 0.00 in0.0 mm
08:00 PM 33.4°F0.8°C 28.4°F-2.0°C 79% 0.5 mph NE0.8 kmh NE 2.7 mph4.3 kmh 29.56 in1001.0 mb 0.00 in0.0 mm 0.00 in0.0 mm 0.00 in0.0 mm
08:05 PM 33.4°F0.8°C 28.4°F-2.0°C 79% 0.9 mph NE1.4 kmh NE 2.7 mph4.3 kmh 29.56 in1001.0 mb 0.00 in0.0 mm 0.00 in0.0 mm 0.00 in0.0 mm
08:10 PM 33.3°F0.7°C 28.4°F-2.0°C 79% 1.4 mph NE2.3 kmh NE 2.7 mph4.3 kmh 29.56 in1001.0 mb 0.00 in0.0 mm 0.00 in0.0 mm 0.00 in0.0 mm
08:15 PM 33.3°F0.7°C 28.4°F-2.0°C 79% 1.4 mph NE2.3 kmh NE 3.4 mph5.5 kmh 29.56 in1001.0 mb 0.00 in0.0 mm 0.00 in0.0 mm 0.00 in0.0 mm
08:20 PM 33.3°F0.7°C 28.4°F-2.0°C 79% 1.0 mph NE1.6 kmh NE 3.4 mph5.5 kmh 29.56 in1001.0 mb 0.00 in0.0 mm 0.00 in0.0 mm 0.00 in0.0 mm
08:25 PM 32.9°F0.5°C 28.4°F-2.0°C 79% 0.3 mph NE0.5 kmh NE 1.6 mph2.6 kmh 29.56 in1001.0 mb 0.00 in0.0 mm 0.00 in0.0 mm 0.00 in0.0 mm
08:30 PM 32.7°F0.4°C 26.6°F-3.0°C 79% Calm Calm -- 29.56 in1001.0 mb 0.00 in0.0 mm 0.00 in0.0 mm 0.00 in0.0 mm
08:35 PM 32.7°F0.4°C 26.6°F-3.0°C 79% 0.1 mph W0.2 kmh W 0.9 mph1.4 kmh 29.56 in1001.0 mb 0.00 in0.0 mm 0.00 in0.0 mm 0.00 in0.0 mm
08:40 PM 32.7°F0.4°C 26.6°F-3.0°C 79% 0.3 mph N0.5 kmh N 0.9 mph1.4 kmh 29.56 in1001.0 mb 0.00 in0.0 mm 0.00 in0.0 mm 0.00 in0.0 mm
08:45 PM 32.7°F0.4°C 26.6°F-3.0°C 79% 0.2 mph NE0.3 kmh NE 0.9 mph1.4 kmh 29.56 in1001.0 mb 0.00 in0.0 mm 0.00 in0.0 mm 0.00 in0.0 mm
08:50 PM 32.5°F0.3°C 26.6°F-3.0°C 79% 0.1 mph NE0.2 kmh NE 0.9 mph1.4 kmh 29.59 in1002.0 mb 0.00 in0.0 mm 0.00 in0.0 mm 0.00 in0.0 mm
08:55 PM 32.2°F0.1°C 26.6°F-3.0°C 79% Calm Calm -- 29.59 in1002.0 mb 0.00 in0.0 mm 0.00 in0.0 mm 0.00 in0.0 mm
09:00 PM 32.2°F0.1°C 26.6°F-3.0°C 79% 0.1 mph N0.2 kmh N 0.9 mph1.4 kmh 29.59 in1002.0 mb 0.00 in0.0 mm 0.00 in0.0 mm 0.00 in0.0 mm
09:05 PM 32.2°F0.1°C 26.6°F-3.0°C 79% 0.4 mph NE0.6 kmh NE 1.3 mph2.1 kmh 29.59 in1002.0 mb 0.00 in0.0 mm 0.00 in0.0 mm 0.00 in0.0 mm
09:10 PM 32.0°F0.0°C 24.8°F-4.0°C 79% 0.4 mph NNE0.6 kmh NNE 1.3 mph2.1 kmh 29.59 in1002.0 mb 0.00 in0.0 mm 0.00 in0.0 mm 0.00 in0.0 mm
09:15 PM 32.2°F0.1°C 26.6°F-3.0°C 80% 0.3 mph N0.5 kmh N 1.3 mph2.1 kmh 29.59 in1002.0 mb 0.00 in0.0 mm 0.00 in0.0 mm 0.00 in0.0 mm
09:20 PM 32.0°F0.0°C 24.8°F-4.0°C 79% 0.1 mph W0.2 kmh W 1.1 mph1.8 kmh 29.59 in1002.0 mb 0.00 in0.0 mm 0.00 in0.0 mm 0.00 in0.0 mm
09:25 PM 32.0°F0.0°C 24.8°F-4.0°C 79% Calm Calm -- 29.59 in1002.0 mb 0.00 in0.0 mm 0.00 in0.0 mm 0.00 in0.0 mm
09:30 PM 32.0°F0.0°C 24.8°F-4.0°C 80% Calm Calm -- 29.59 in1002.0 mb 0.00 in0.0 mm 0.00 in0.0 mm 0.00 in0.0 mm
09:35 PM 32.0°F0.0°C 24.8°F-4.0°C 80% 0.1 mph W0.2 kmh W 0.9 mph1.4 kmh 29.59 in1002.0 mb 0.00 in0.0 mm 0.00 in0.0 mm 0.00 in0.0 mm
09:40 PM 32.0°F0.0°C 24.8°F-4.0°C 80% 0.1 mph W0.2 kmh W 0.9 mph1.4 kmh 29.59 in1002.0 mb 0.00 in0.0 mm 0.00 in0.0 mm 0.00 in0.0 mm
09:45 PM 31.8°F-0.1°C 24.8°F-4.0°C 80% Calm Calm -- 29.59 in1002.0 mb 0.00 in0.0 mm 0.00 in0.0 mm 0.00 in0.0 mm
09:50 PM 31.6°F-0.2°C 24.8°F-4.0°C 80% Calm Calm -- 29.59 in1002.0 mb 0.00 in0.0 mm 0.00 in0.0 mm 0.00 in0.0 mm
09:55 PM 31.6°F-0.2°C 24.8°F-4.0°C 80% Calm Calm -- 29.59 in1002.0 mb 0.00 in0.0 mm 0.00 in0.0 mm 0.00 in0.0 mm
10:00 PM 31.5°F-0.3°C 24.8°F-4.0°C 80% Calm Calm -- 29.59 in1002.0 mb 0.00 in0.0 mm 0.00 in0.0 mm 0.00 in0.0 mm
10:05 PM 32.0°F0.0°C 24.8°F-4.0°C 80% Calm Calm -- 29.62 in1003.0 mb 0.00 in0.0 mm 0.00 in0.0 mm 0.00 in0.0 mm
10:10 PM 31.8°F-0.1°C 24.8°F-4.0°C 80% Calm Calm -- 29.62 in1003.0 mb 0.00 in0.0 mm 0.00 in0.0 mm 0.00 in0.0 mm
10:15 PM 31.5°F-0.3°C 24.8°F-4.0°C 80% Calm Calm -- 29.62 in1003.0 mb 0.00 in0.0 mm 0.00 in0.0 mm 0.00 in0.0 mm
10:20 PM 31.5°F-0.3°C 24.8°F-4.0°C 80% Calm Calm -- 29.62 in1003.0 mb 0.00 in0.0 mm 0.00 in0.0 mm 0.00 in0.0 mm
10:25 PM 31.5°F-0.3°C 24.8°F-4.0°C 80% Calm Calm -- 29.62 in1003.0 mb 0.00 in0.0 mm 0.00 in0.0 mm 0.00 in0.0 mm
10:30 PM 30.9°F-0.6°C 24.8°F-4.0°C 80% Calm Calm -- 29.62 in1003.0 mb 0.00 in0.0 mm 0.00 in0.0 mm 0.00 in0.0 mm
10:35 PM 30.7°F-0.7°C 24.8°F-4.0°C 80% Calm Calm -- 29.62 in1003.0 mb 0.00 in0.0 mm 0.00 in0.0 mm 0.00 in0.0 mm
10:40 PM 30.7°F-0.7°C 24.8°F-4.0°C 80% Calm Calm -- 29.62 in1003.0 mb 0.00 in0.0 mm 0.00 in0.0 mm 0.00 in0.0 mm
10:45 PM 30.6°F-0.8°C 23.0°F-5.0°C 80% Calm Calm -- 29.62 in1003.0 mb 0.00 in0.0 mm 0.00 in0.0 mm 0.00 in0.0 mm
10:50 PM 30.9°F-0.6°C 24.8°F-4.0°C 80% Calm Calm -- 29.62 in1003.0 mb 0.00 in0.0 mm 0.00 in0.0 mm 0.00 in0.0 mm
10:55 PM 30.9°F-0.6°C 24.8°F-4.0°C 80% Calm Calm -- 29.62 in1003.0 mb 0.00 in0.0 mm 0.00 in0.0 mm 0.00 in0.0 mm
11:00 PM 30.9°F-0.6°C 24.8°F-4.0°C 80% Calm Calm -- 29.62 in1003.0 mb 0.00 in0.0 mm 0.00 in0.0 mm 0.00 in0.0 mm
11:05 PM 30.9°F-0.6°C 24.8°F-4.0°C 80% 0.1 mph SSW0.2 kmh SSW 0.9 mph1.4 kmh 29.62 in1003.0 mb 0.00 in0.0 mm 0.00 in0.0 mm 0.00 in0.0 mm
11:10 PM 31.3°F-0.4°C 24.8°F-4.0°C 81% 0.7 mph SSW1.1 kmh SSW 2.5 mph4.0 kmh 29.62 in1003.0 mb 0.00 in0.0 mm 0.00 in0.0 mm 0.00 in0.0 mm
11:15 PM 31.5°F-0.3°C 24.8°F-4.0°C 81% 0.7 mph SSW1.1 kmh SSW 2.5 mph4.0 kmh 29.62 in1003.0 mb 0.00 in0.0 mm 0.00 in0.0 mm 0.00 in0.0 mm
11:20 PM 31.3°F-0.4°C 24.8°F-4.0°C 81% 0.2 mph SSW0.3 kmh SSW 1.6 mph2.6 kmh 29.62 in1003.0 mb 0.00 in0.0 mm 0.00 in0.0 mm 0.00 in0.0 mm
11:25 PM 31.6°F-0.2°C 24.8°F-4.0°C 81% 0.3 mph SSW0.5 kmh SSW 1.1 mph1.8 kmh 29.62 in1003.0 mb 0.00 in0.0 mm 0.00 in0.0 mm 0.00 in0.0 mm
11:30 PM 31.8°F-0.1°C 24.8°F-4.0°C 81% 0.4 mph SSW0.6 kmh SSW 1.3 mph2.1 kmh 29.62 in1003.0 mb 0.00 in0.0 mm 0.00 in0.0 mm 0.00 in0.0 mm
11:35 PM 32.0°F0.0°C 24.8°F-4.0°C 81% 0.5 mph SW0.8 kmh SW 1.3 mph2.1 kmh 29.65 in1004.1 mb 0.00 in0.0 mm 0.00 in0.0 mm 0.00 in0.0 mm
11:40 PM 31.8°F-0.1°C 24.8°F-4.0°C 81% 1.0 mph SW1.6 kmh SW 2.2 mph3.5 kmh 29.65 in1004.1 mb 0.00 in0.0 mm 0.00 in0.0 mm 0.00 in0.0 mm
11:45 PM 32.0°F0.0°C 24.8°F-4.0°C 81% 1.5 mph SW2.4 kmh SW 4.3 mph6.9 kmh 29.65 in1004.1 mb 0.00 in0.0 mm 0.00 in0.0 mm 0.00 in0.0 mm
11:50 PM 33.1°F0.6°C 28.4°F-2.0°C 81% 2.4 mph WSW3.9 kmh WSW 4.3 mph6.9 kmh 29.65 in1004.1 mb 0.00 in0.0 mm 0.00 in0.0 mm 0.00 in0.0 mm
11:55 PM 33.6°F0.9°C 28.4°F-2.0°C 81% 3.3 mph WSW5.3 kmh WSW 4.3 mph6.9 kmh 29.65 in1004.1 mb 0.00 in0.0 mm 0.00 in0.0 mm 0.00 in0.0 mm